createdAt,value
2023-03-02T00:01:10.178Z,65.56
2023-03-02T00:03:39.887Z,66.38
2023-03-02T00:06:07.863Z,66.76
2023-03-02T00:08:35.494Z,66.64
2023-03-02T00:11:02.551Z,66.80
2023-03-02T00:13:30.832Z,66.25
2023-03-02T00:15:57.548Z,66.78
2023-03-02T00:18:24.858Z,67.49
2023-03-02T00:20:51.443Z,66.82
2023-03-02T00:23:18.007Z,66.83
2023-03-02T00:25:44.801Z,66.78
2023-03-02T00:28:11.401Z,66.65
2023-03-02T00:30:39.132Z,66.39
2023-03-02T00:33:05.651Z,66.22
2023-03-02T00:35:37.511Z,66.35
2023-03-02T00:38:04.115Z,66.70
2023-03-02T00:40:30.759Z,65.92
2023-03-02T00:42:57.311Z,66.14
2023-03-02T00:45:24.223Z,66.24
2023-03-02T00:47:51.020Z,66.46
2023-03-02T00:50:17.627Z,66.19
2023-03-02T00:52:44.322Z,66.86
2023-03-02T00:55:10.956Z,66.64
2023-03-02T00:57:37.536Z,67.33
2023-03-02T01:00:05.183Z,67.50
2023-03-02T01:02:32.037Z,67.98
2023-03-02T01:04:58.696Z,68.17
2023-03-02T01:07:26.278Z,68.26
2023-03-02T01:09:53.155Z,68.11
2023-03-02T01:12:20.027Z,69.07
2023-03-02T01:14:48.903Z,68.29
2023-03-02T01:17:15.887Z,67.86
2023-03-02T01:19:42.927Z,67.84
2023-03-02T01:22:10.176Z,67.57
2023-03-02T01:24:37.157Z,67.44
2023-03-02T01:27:04.169Z,66.54
2023-03-02T01:29:30.804Z,67.12
2023-03-02T01:31:57.643Z,66.86
2023-03-02T01:34:24.464Z,66.63
2023-03-02T01:36:51.209Z,66.45
2023-03-02T01:39:17.844Z,66.15
2023-03-02T01:41:46.190Z,65.77
2023-03-02T01:44:37.440Z,65.03
2023-03-02T01:47:39.801Z,65.23
2023-03-02T01:50:20.974Z,64.80
2023-03-02T01:52:49.459Z,65.15
2023-03-02T01:55:29.340Z,64.89
2023-03-02T01:57:58.729Z,65.29
2023-03-02T02:00:29.979Z,65.16
2023-03-02T02:03:09.156Z,64.79
2023-03-02T02:05:41.372Z,65.08
2023-03-02T02:08:08.469Z,65.12
2023-03-02T02:10:35.805Z,65.36
2023-03-02T02:13:02.973Z,65.28
2023-03-02T02:15:29.966Z,65.28
2023-03-02T02:17:56.602Z,65.42
2023-03-02T02:20:40.546Z,65.80
2023-03-02T02:23:30.077Z,65.42
2023-03-02T02:26:03.953Z,65.54
2023-03-02T02:28:33.259Z,66.25
2023-03-02T02:31:37.932Z,65.20
2023-03-02T02:34:14.188Z,65.65
2023-03-02T02:36:44.557Z,66.29
2023-03-02T02:39:17.962Z,67.02
2023-03-02T02:41:47.603Z,66.34
2023-03-02T02:46:49.532Z,67.20
2023-03-02T02:49:29.226Z,67.61
2023-03-02T02:51:56.077Z,67.35
2023-03-02T02:54:23.745Z,68.25
2023-03-02T03:04:49.763Z,67.37
2023-03-02T03:10:23.484Z,67.81
2023-03-02T03:12:51.473Z,67.14
2023-03-02T03:15:19.912Z,66.67
2023-03-02T03:17:57.144Z,67.76
2023-03-02T03:20:25.149Z,67.28
2023-03-02T03:22:55.141Z,68.27
2023-03-02T03:25:25.328Z,68.60
2023-03-02T03:27:51.971Z,68.13
2023-03-02T03:30:18.576Z,68.64
2023-03-02T03:32:45.199Z,68.49
2023-03-02T03:35:12.546Z,68.81
2023-03-02T04:04:04.697Z,69.77
2023-03-02T04:06:31.852Z,68.65
2023-03-02T04:09:04.507Z,69.72
2023-03-02T04:14:07.148Z,69.54
2023-03-02T04:16:34.539Z,69.50
2023-03-02T04:19:01.450Z,71.23
2023-03-02T04:21:28.367Z,71.35
2023-03-02T04:23:55.593Z,71.11
2023-03-02T04:26:22.265Z,71.97
2023-03-02T04:34:12.223Z,71.36
2023-03-02T04:36:40.440Z,73.05
2023-03-02T04:39:08.639Z,73.53
2023-03-02T04:41:35.485Z,73.15
2023-03-02T04:59:45.145Z,74.26
2023-03-02T05:02:11.821Z,74.05
2023-03-02T05:34:20.867Z,74.75
2023-03-02T05:42:04.378Z,74.42
2023-03-02T05:44:30.881Z,74.55
2023-03-02T05:46:57.507Z,74.49
2023-03-02T05:49:24.252Z,73.99
2023-03-02T05:51:50.779Z,73.91
2023-03-02T05:54:17.441Z,73.90
2023-03-02T05:56:44.025Z,72.98
2023-03-02T05:59:10.579Z,73.67
2023-03-02T06:01:37.164Z,73.76
2023-03-02T06:04:03.846Z,73.51
2023-03-02T06:06:32.324Z,72.95
2023-03-02T06:09:00.429Z,73.35
2023-03-02T06:11:27.005Z,73.11
2023-03-02T06:13:53.517Z,72.09
2023-03-02T06:16:20.104Z,73.17
2023-03-02T06:18:46.914Z,72.35
2023-03-02T06:21:13.435Z,72.23
2023-03-02T06:23:40.078Z,72.00
2023-03-02T06:26:12.016Z,71.42
2023-03-02T06:28:51.529Z,71.42
2023-03-02T06:31:19.067Z,71.56
2023-03-02T06:33:45.634Z,71.72
2023-03-02T06:36:12.698Z,71.57
2023-03-02T06:38:39.326Z,71.21
2023-03-02T06:41:05.858Z,70.98
2023-03-02T06:43:32.448Z,71.01
2023-03-02T06:46:00.751Z,71.21
2023-03-02T06:48:27.426Z,70.71
2023-03-02T06:50:54.301Z,70.62
2023-03-02T06:53:22.966Z,70.32
2023-03-02T06:55:50.551Z,69.77
2023-03-02T06:58:17.488Z,70.03
2023-03-02T07:00:44.058Z,69.42
2023-03-02T07:03:10.657Z,69.13
2023-03-02T07:05:37.577Z,68.52
2023-03-02T07:08:04.598Z,68.15
2023-03-02T07:10:31.205Z,68.82
2023-03-02T07:12:57.768Z,68.83
2023-03-02T07:15:24.698Z,68.35
2023-03-02T07:17:52.976Z,68.16
2023-03-02T07:20:19.716Z,68.65
2023-03-02T07:22:46.446Z,68.81
2023-03-02T07:25:13.450Z,68.80
2023-03-02T07:27:40.407Z,68.43
2023-03-02T07:30:08.269Z,68.16
2023-03-02T07:32:34.949Z,67.60
2023-03-02T07:35:01.562Z,67.19
2023-03-02T07:37:28.066Z,67.43
2023-03-02T07:39:54.582Z,67.30
2023-03-02T07:42:21.376Z,66.64
2023-03-02T07:44:48.130Z,66.99
2023-03-02T07:47:14.681Z,66.65
2023-03-02T07:49:41.247Z,66.03
2023-03-02T07:52:07.839Z,65.56
2023-03-02T07:54:34.376Z,65.51
2023-03-02T07:57:01.222Z,63.93
2023-03-02T07:59:28.422Z,62.73
2023-03-02T08:01:56.019Z,62.87
2023-03-02T08:04:22.848Z,62.54
2023-03-02T08:06:49.458Z,62.65
2023-03-02T08:09:17.245Z,62.74
2023-03-02T08:11:44.910Z,62.83
2023-03-02T08:14:11.486Z,62.04
2023-03-02T08:16:39.374Z,61.51
2023-03-02T08:21:47.351Z,60.87
2023-03-02T08:24:13.875Z,61.76
2023-03-02T08:26:40.636Z,61.65
2023-03-02T08:29:07.216Z,60.20
2023-03-02T08:31:34.093Z,59.75
2023-03-02T08:34:00.872Z,59.49
2023-03-02T08:36:27.450Z,59.78
2023-03-02T08:38:54.679Z,60.24
2023-03-02T08:41:23.355Z,58.93
2023-03-02T08:43:50.536Z,58.69
2023-03-02T08:46:19.027Z,57.73
2023-03-02T08:48:46.394Z,57.30
2023-03-02T08:51:19.108Z,58.24
2023-03-02T08:53:47.526Z,58.08
2023-03-02T08:56:36.058Z,54.47
2023-03-02T08:59:05.961Z,57.61
2023-03-02T09:01:34.948Z,56.74
2023-03-02T09:04:03.041Z,55.97
2023-03-02T09:06:32.061Z,56.71
2023-03-02T09:08:58.790Z,56.85
2023-03-02T09:11:26.128Z,56.66
2023-03-02T09:13:53.227Z,56.05
2023-03-02T09:16:20.389Z,55.26
2023-03-02T09:18:48.026Z,56.59
2023-03-02T09:21:14.544Z,56.67
2023-03-02T09:23:41.159Z,54.61
2023-03-02T09:26:08.149Z,55.07
2023-03-02T09:28:36.117Z,55.31
2023-03-02T09:31:06.136Z,54.37
2023-03-02T09:33:33.003Z,54.61
2023-03-02T09:35:59.694Z,53.72
2023-03-02T09:38:26.558Z,54.20
2023-03-02T09:40:58.942Z,53.99
2023-03-02T09:43:31.294Z,53.92
2023-03-02T09:46:10.315Z,53.93
2023-03-02T09:48:43.295Z,53.65
2023-03-02T09:51:24.178Z,51.63
2023-03-02T09:54:14.050Z,49.60
2023-03-02T10:07:33.760Z,52.04
2023-03-02T13:40:55.647Z,40.57
2023-03-02T13:43:39.520Z,41.23
2023-03-02T13:46:12.028Z,40.31
2023-03-02T13:48:38.686Z,40.77
2023-03-02T13:51:18.365Z,40.91
2023-03-02T13:53:52.813Z,41.04
2023-03-02T13:59:17.977Z,40.49
2023-03-02T14:10:04.580Z,41.30
2023-03-02T14:12:33.644Z,41.30
2023-03-02T14:15:02.497Z,41.46
2023-03-02T14:17:29.532Z,41.45
2023-03-02T14:19:57.794Z,41.68
2023-03-02T14:22:26.814Z,41.07
2023-03-02T14:24:53.694Z,41.14
2023-03-02T14:27:20.572Z,41.17
2023-03-02T15:01:48.297Z,41.34
2023-03-02T15:04:14.813Z,42.68
2023-03-02T15:06:43.073Z,41.28
2023-03-02T15:09:11.965Z,42.45
2023-03-02T15:11:38.575Z,42.65
2023-03-02T15:14:05.179Z,41.77
2023-03-02T15:16:31.798Z,41.69
2023-03-02T15:18:59.006Z,41.99
2023-03-02T15:21:25.663Z,42.25
2023-03-02T15:26:34.247Z,41.52
2023-03-02T15:29:00.766Z,41.23
2023-03-02T15:31:28.339Z,41.14
2023-03-02T15:39:18.210Z,42.23
2023-03-02T15:41:44.754Z,42.55
2023-03-02T15:44:23.870Z,41.69
2023-03-02T15:46:53.030Z,42.20
2023-03-02T15:49:24.827Z,42.71
2023-03-02T15:51:52.929Z,42.99
2023-03-02T15:54:19.636Z,42.73
2023-03-02T15:56:49.625Z,42.58
2023-03-02T15:59:16.321Z,43.40
2023-03-02T16:01:42.837Z,43.37
2023-03-02T16:04:09.859Z,43.87
2023-03-02T16:06:36.448Z,43.61
2023-03-02T16:09:03.311Z,43.71
2023-03-02T16:11:29.955Z,43.66
2023-03-02T16:13:56.530Z,44.04
2023-03-02T16:16:23.239Z,44.40
2023-03-02T16:18:54.321Z,44.92
2023-03-02T16:21:21.824Z,45.06
2023-03-02T16:23:49.119Z,45.65
2023-03-02T16:26:21.190Z,46.09
2023-03-02T16:28:48.456Z,45.77
2023-03-02T16:31:18.211Z,45.89
2023-03-02T16:33:45.271Z,45.48
2023-03-02T16:36:12.348Z,45.37
2023-03-02T16:38:39.477Z,45.34
2023-03-02T16:41:19.716Z,45.29
2023-03-02T16:43:50.288Z,45.64
2023-03-02T16:46:18.037Z,45.40
2023-03-02T16:48:46.082Z,46.03
2023-03-02T16:51:13.411Z,46.00
2023-03-02T16:53:43.162Z,45.75
2023-03-02T16:56:11.070Z,45.94
2023-03-02T16:58:39.665Z,45.70
2023-03-02T17:01:08.585Z,46.11
2023-03-02T17:14:16.244Z,46.90
2023-03-02T17:16:42.813Z,46.90
2023-03-02T17:19:09.406Z,46.87
2023-03-02T17:21:36.032Z,47.30
2023-03-02T17:24:02.719Z,47.39
2023-03-02T17:26:29.262Z,47.88
2023-03-02T17:28:55.787Z,47.74
2023-03-02T17:31:22.427Z,48.20
2023-03-02T17:33:49.077Z,48.03
2023-03-02T17:36:15.833Z,47.78
2023-03-02T17:38:42.582Z,47.98
2023-03-02T17:41:10.864Z,48.64
2023-03-02T17:43:39.763Z,48.62
2023-03-02T17:46:15.313Z,48.88
2023-03-02T17:48:42.887Z,48.57
2023-03-02T17:51:11.781Z,48.72
2023-03-02T17:53:38.599Z,48.76
2023-03-02T17:56:05.487Z,48.68
2023-03-02T17:58:44.238Z,49.48
2023-03-02T18:01:12.998Z,48.91
2023-03-02T18:03:39.583Z,49.53
2023-03-02T18:06:06.488Z,49.91
2023-03-02T18:08:33.238Z,48.99
2023-03-02T18:11:00.565Z,49.42
2023-03-02T18:13:27.132Z,49.80
2023-03-02T18:15:53.723Z,50.27
2023-03-02T18:18:20.287Z,50.22
2023-03-02T18:20:46.962Z,50.58
2023-03-02T18:23:14.009Z,50.49
2023-03-02T18:25:40.628Z,50.51
2023-03-02T18:28:07.224Z,50.97
2023-03-02T18:30:34.197Z,50.90
2023-03-02T18:33:01.350Z,51.00
2023-03-02T18:35:27.933Z,51.09
2023-03-02T18:37:54.508Z,51.23
2023-03-02T18:40:21.279Z,51.60
2023-03-02T18:42:48.338Z,51.80
2023-03-02T18:45:21.857Z,51.57
2023-03-02T18:47:48.442Z,51.24
2023-03-02T18:50:15.301Z,51.90
2023-03-02T18:52:41.882Z,51.59
2023-03-02T18:55:09.010Z,51.42
2023-03-02T18:57:38.042Z,51.59
2023-03-02T19:00:07.031Z,51.01
2023-03-02T19:02:34.543Z,51.23
2023-03-02T19:05:01.459Z,52.01
2023-03-02T19:07:28.472Z,52.09
2023-03-02T19:09:55.044Z,51.83
2023-03-02T19:12:21.665Z,51.46
2023-03-02T19:14:48.256Z,51.50
2023-03-02T19:17:15.172Z,51.22
2023-03-02T19:19:43.595Z,50.77
2023-03-02T19:22:10.554Z,51.02
2023-03-02T19:24:37.092Z,50.98
2023-03-02T19:27:03.844Z,50.80
2023-03-02T19:29:30.421Z,50.12
2023-03-02T19:31:56.979Z,50.40
2023-03-02T19:34:23.878Z,50.44
2023-03-02T19:36:50.640Z,50.68
2023-03-02T19:39:17.325Z,50.31
2023-03-02T19:41:43.931Z,50.44
2023-03-02T19:44:12.523Z,50.18
2023-03-02T19:46:39.747Z,50.78
2023-03-02T19:49:06.311Z,50.99
2023-03-02T19:51:32.893Z,50.88
2023-03-02T19:53:59.477Z,51.13
2023-03-02T19:56:30.390Z,51.69
2023-03-02T19:58:57.893Z,51.50
2023-03-02T20:01:25.793Z,51.61
2023-03-02T20:03:54.300Z,51.71
2023-03-02T20:06:23.294Z,51.81
2023-03-02T20:08:49.969Z,52.40
2023-03-02T20:11:17.354Z,52.80
2023-03-02T20:13:45.319Z,52.74
2023-03-02T20:16:14.143Z,53.21
2023-03-02T20:18:42.253Z,53.58
2023-03-02T20:21:08.924Z,52.75
2023-03-02T20:23:35.537Z,53.23
2023-03-02T20:26:02.940Z,53.71
2023-03-02T20:28:32.914Z,53.75
2023-03-02T20:31:04.505Z,53.66
2023-03-02T20:33:36.763Z,54.03
2023-03-02T20:36:04.957Z,54.11
2023-03-02T20:38:39.544Z,55.13
2023-03-02T20:41:07.380Z,54.87
2023-03-02T20:43:34.246Z,54.50
2023-03-02T20:46:01.597Z,54.60
2023-03-02T20:48:28.839Z,54.20
2023-03-02T20:50:55.978Z,54.98
2023-03-02T20:53:23.203Z,55.61
2023-03-02T20:55:49.929Z,56.11
2023-03-02T20:58:17.247Z,55.92
2023-03-02T21:00:43.845Z,55.98
2023-03-02T21:03:10.609Z,55.52
2023-03-02T21:05:40.346Z,55.25
2023-03-02T21:08:08.371Z,55.36
2023-03-02T21:10:37.711Z,54.94
2023-03-02T21:13:05.695Z,54.98
2023-03-02T21:15:32.638Z,54.80
2023-03-02T21:17:59.637Z,55.81
2023-03-02T21:20:29.950Z,55.72
2023-03-02T21:22:56.535Z,56.40
2023-03-02T21:25:23.474Z,56.42
2023-03-02T21:27:49.984Z,56.79
2023-03-02T21:30:22.626Z,56.89
2023-03-02T21:32:49.670Z,56.77
2023-03-02T21:35:21.842Z,56.10
2023-03-02T21:37:51.424Z,56.26
2023-03-02T21:40:22.536Z,56.31
2023-03-02T21:42:49.115Z,55.90
2023-03-02T21:45:15.786Z,55.91
2023-03-02T21:47:43.222Z,56.05
2023-03-02T21:50:14.087Z,56.31
2023-03-02T21:52:41.077Z,56.24
2023-03-02T21:55:08.596Z,56.54
2023-03-02T21:57:35.408Z,56.73
2023-03-02T22:00:04.523Z,56.66
2023-03-02T22:02:32.390Z,56.52
2023-03-02T22:04:59.153Z,56.86
2023-03-02T22:07:25.665Z,57.11
2023-03-02T22:09:52.756Z,56.96
2023-03-02T22:12:22.396Z,57.63
2023-03-02T22:14:48.999Z,56.96
2023-03-02T22:17:18.955Z,57.12
2023-03-02T22:19:45.694Z,56.87
2023-03-02T22:22:16.261Z,57.43
2023-03-02T22:24:49.862Z,57.31
2023-03-02T22:27:34.953Z,57.08
2023-03-02T22:30:02.851Z,57.32
2023-03-02T22:32:31.444Z,57.18
2023-03-02T22:35:00.664Z,56.95
2023-03-02T22:37:34.053Z,55.90
2023-03-02T22:40:27.840Z,55.75
2023-03-02T22:43:06.291Z,56.95
2023-03-02T22:45:32.836Z,56.31
2023-03-02T22:50:34.643Z,55.78
2023-03-02T22:53:16.007Z,55.25
2023-03-02T22:55:43.304Z,55.43
2023-03-02T22:58:29.864Z,55.66
2023-03-02T23:00:57.919Z,55.16
2023-03-02T23:03:33.914Z,55.55
2023-03-02T23:06:00.438Z,55.60
2023-03-02T23:08:29.320Z,55.95
2023-03-02T23:10:58.541Z,56.30
2023-03-02T23:13:31.044Z,56.39
2023-03-02T23:15:57.783Z,57.04
2023-03-02T23:18:28.002Z,56.67
2023-03-02T23:20:55.329Z,57.04
2023-03-02T23:23:24.409Z,56.75
2023-03-02T23:25:51.035Z,57.21
2023-03-02T23:28:17.658Z,57.29
2023-03-02T23:30:44.211Z,57.57
2023-03-02T23:33:11.000Z,57.38
2023-03-02T23:35:37.566Z,57.88
2023-03-02T23:38:04.094Z,57.77
2023-03-02T23:40:30.662Z,57.92
2023-03-02T23:45:32.608Z,57.51
2023-03-02T23:47:59.272Z,57.27
2023-03-02T23:50:25.814Z,57.28
2023-03-02T23:52:52.354Z,57.16
2023-03-02T23:55:19.008Z,56.99
2023-03-02T23:57:45.528Z,57.48
